Midvalley, Pennsylvania
Current Conditions -  °F | °C
As of 10:15 PM on Wednesday 22 Oct 2014 (Local Time) from KHZL Reporting Station
Drizzle Drizzle  
Wind Chill: 40°   Ceiling: 700
Heat Index: 46°   Visibility: 10mi
Dew Point: 45°   Wind: 15mph
Humidity: 93%   Direction: 330°NNW
Pressure: 29.95"   Gusts: 21mph
Location:  40.8229°N, 76.3735°W
Report Text: KHZL 230215Z AUTO 33013G18KT 10SM DZ OVC007 08/07 A2995 RMK AO2
Loading
Personal Weather Stations






























Interactive Weather Map
Tropical Storm Tracking
New forecast layout! Learn more

10-Day Weather Forecast

Advertisements
Track Severe Weather on mobile